Terminal Aerodrome Forecast
Issued by NWS

Home | Current Version | Previous Version | Text Only | Print | Product List | Glossary On
Versions: 1 2 3 4 5 6 7 8 9 10 11 12 13 14 15 16 17
000
FTUS44 KLZK 242300
TAFLIT
TAF
KLIT 242328Z 2500/2524 17008G18KT P6SM VCSH SCT020 BKN040 OVC100
     FM250400 18007KT 6SM BR VCSH SCT025 OVC040
     FM250900 18004KT 4SM BR VCSH OVC015
     FM251500 18007KT P6SM VCSH BKN025 OVC080=

USA.gov is the U.S. government's official web portal to all federal, state and local government web resources and services.